Terminal Aerodrome Forecast
Issued by NWS Wilmington, OH

Current Version | Previous Version | Text Only | Print | Product List | Glossary Off
Versions: 1 2 3 4 5 6 7 8 9 10 11 12 13 14 15 16 17 18 19 20 21 22 23

000
FTUS41 KILN 201031 AAE
TAFDAY
TAF AMD
KDAY 201031Z 2011/2106 17003KT 0SM FG VV001
     FM201400 VRB03KT 1SM BR BKN015
     FM201500 14004KT P6SM SCT015
     FM201800 14007KT P6SM SCT200
     FM210200 15007KT P6SM BKN250=

USA.gov is the U.S. government's official web portal to all federal, state and local government web resources and services.